sensor_id;sensor_type;location;lat;lon;timestamp;pressure;altitude;pressure_sealevel;temperature;humidity
40998;BME280;26740;45.944;12.480;2022-10-20T00:01:40;101783.84;;;14.08;100.00
40998;BME280;26740;45.944;12.480;2022-10-20T00:04:06;101787.75;;;14.07;100.00
40998;BME280;26740;45.944;12.480;2022-10-20T00:06:32;101791.16;;;14.09;100.00
40998;BME280;26740;45.944;12.480;2022-10-20T00:09:00;101792.22;;;14.08;100.00
40998;BME280;26740;45.944;12.480;2022-10-20T00:11:27;101785.97;;;14.00;100.00
40998;BME280;26740;45.944;12.480;2022-10-20T00:13:54;101781.75;;;13.98;100.00
40998;BME280;26740;45.944;12.480;2022-10-20T00:16:21;101786.47;;;13.97;100.00
40998;BME280;26740;45.944;12.480;2022-10-20T00:18:47;101787.00;;;13.94;100.00
40998;BME280;26740;45.944;12.480;2022-10-20T00:21:16;101785.78;;;13.90;100.00
40998;BME280;26740;45.944;12.480;2022-10-20T00:23:43;101793.47;;;13.83;100.00
40998;BME280;26740;45.944;12.480;2022-10-20T00:26:17;101789.16;;;13.75;100.00
40998;BME280;26740;45.944;12.480;2022-10-20T00:28:44;101787.34;;;13.69;100.00
40998;BME280;26740;45.944;12.480;2022-10-20T00:31:11;101790.81;;;13.59;100.00
40998;BME280;26740;45.944;12.480;2022-10-20T00:33:37;101801.03;;;13.54;100.00
40998;BME280;26740;45.944;12.480;2022-10-20T00:36:05;101790.72;;;13.54;100.00
40998;BME280;26740;45.944;12.480;2022-10-20T00:38:31;101804.91;;;13.53;100.00
40998;BME280;26740;45.944;12.480;2022-10-20T00:40:57;101804.22;;;13.45;100.00
40998;BME280;26740;45.944;12.480;2022-10-20T00:43:48;101808.59;;;13.41;100.00
40998;BME280;26740;45.944;12.480;2022-10-20T00:46:38;101795.38;;;13.37;100.00
40998;BME280;26740;45.944;12.480;2022-10-20T00:49:11;101797.22;;;13.31;100.00
40998;BME280;26740;45.944;12.480;2022-10-20T00:51:38;101796.22;;;13.37;100.00
40998;BME280;26740;45.944;12.480;2022-10-20T00:54:13;101796.13;;;13.32;100.00
40998;BME280;26740;45.944;12.480;2022-10-20T00:56:42;101799.63;;;13.27;100.00
40998;BME280;26740;45.944;12.480;2022-10-20T00:59:10;101795.91;;;13.22;100.00
40998;BME280;26740;45.944;12.480;2022-10-20T01:01:39;101802.22;;;13.17;100.00
40998;BME280;26740;45.944;12.480;2022-10-20T01:04:06;101795.56;;;13.18;100.00
40998;BME280;26740;45.944;12.480;2022-10-20T01:06:32;101806.19;;;13.21;100.00
40998;BME280;26740;45.944;12.480;2022-10-20T01:08:57;101800.03;;;13.19;100.00
40998;BME280;26740;45.944;12.480;2022-10-20T01:11:43;101801.13;;;13.18;100.00
40998;BME280;26740;45.944;12.480;2022-10-20T01:14:29;101799.91;;;13.14;100.00
40998;BME280;26740;45.944;12.480;2022-10-20T01:30:48;101783.13;;;12.85;100.00
40998;BME280;26740;45.944;12.480;2022-10-20T01:33:24;101784.97;;;12.80;100.00
40998;BME280;26740;45.944;12.480;2022-10-20T01:36:22;101792.34;;;12.86;100.00
40998;BME280;26740;45.944;12.480;2022-10-20T01:38:57;101795.00;;;12.81;100.00
40998;BME280;26740;45.944;12.480;2022-10-20T01:44:03;101791.84;;;12.77;100.00
40998;BME280;26740;45.944;12.480;2022-10-20T01:46:31;101787.38;;;12.76;100.00
40998;BME280;26740;45.944;12.480;2022-10-20T01:48:59;101786.78;;;12.74;100.00
40998;BME280;26740;45.944;12.480;2022-10-20T01:51:27;101778.56;;;12.67;100.00
40998;BME280;26740;45.944;12.480;2022-10-20T01:53:52;101781.94;;;12.69;100.00
40998;BME280;26740;45.944;12.480;2022-10-20T01:56:38;101787.75;;;12.68;100.00
40998;BME280;26740;45.944;12.480;2022-10-20T02:05:17;101781.34;;;12.67;100.00
40998;BME280;26740;45.944;12.480;2022-10-20T02:07:46;101780.47;;;12.67;100.00
40998;BME280;26740;45.944;12.480;2022-10-20T02:10:22;101794.31;;;12.62;100.00
40998;BME280;26740;45.944;12.480;2022-10-20T02:12:57;101791.66;;;12.55;100.00
40998;BME280;26740;45.944;12.480;2022-10-20T02:15:26;101786.78;;;12.50;100.00
40998;BME280;26740;45.944;12.480;2022-10-20T02:17:59;101793.22;;;12.39;100.00
40998;BME280;26740;45.944;12.480;2022-10-20T02:20:26;101792.25;;;12.33;100.00
40998;BME280;26740;45.944;12.480;2022-10-20T02:22:53;101793.19;;;12.27;100.00
40998;BME280;26740;45.944;12.480;2022-10-20T02:25:21;101783.28;;;12.20;100.00
40998;BME280;26740;45.944;12.480;2022-10-20T02:27:47;101785.06;;;12.14;100.00
40998;BME280;26740;45.944;12.480;2022-10-20T02:30:15;101791.38;;;12.09;100.00
40998;BME280;26740;45.944;12.480;2022-10-20T02:32:43;101786.53;;;12.17;100.00
40998;BME280;26740;45.944;12.480;2022-10-20T02:35:18;101774.19;;;12.12;100.00
40998;BME280;26740;45.944;12.480;2022-10-20T02:37:45;101777.31;;;12.04;100.00
40998;BME280;26740;45.944;12.480;2022-10-20T02:40:11;101781.69;;;12.12;100.00
40998;BME280;26740;45.944;12.480;2022-10-20T02:42:37;101780.00;;;12.11;100.00
40998;BME280;26740;45.944;12.480;2022-10-20T02:45:06;101787.38;;;12.05;100.00
40998;BME280;26740;45.944;12.480;2022-10-20T02:47:31;101787.25;;;12.00;100.00
40998;BME280;26740;45.944;12.480;2022-10-20T02:49:57;101787.25;;;12.00;100.00
40998;BME280;26740;45.944;12.480;2022-10-20T02:52:23;101782.75;;;11.99;100.00
40998;BME280;26740;45.944;12.480;2022-10-20T02:54:48;101784.94;;;11.97;100.00
40998;BME280;26740;45.944;12.480;2022-10-20T02:57:14;101782.63;;;11.94;100.00
40998;BME280;26740;45.944;12.480;2022-10-20T02:59:39;101775.22;;;11.88;100.00
40998;BME280;26740;45.944;12.480;2022-10-20T03:02:05;101783.06;;;11.79;100.00
40998;BME280;26740;45.944;12.480;2022-10-20T03:04:30;101789.34;;;11.86;100.00
40998;BME280;26740;45.944;12.480;2022-10-20T03:06:56;101794.84;;;11.93;100.00
40998;BME280;26740;45.944;12.480;2022-10-20T03:09:22;101792.38;;;11.85;100.00
40998;BME280;26740;45.944;12.480;2022-10-20T03:11:47;101792.31;;;11.91;100.00
40998;BME280;26740;45.944;12.480;2022-10-20T03:14:13;101793.22;;;11.85;100.00
40998;BME280;26740;45.944;12.480;2022-10-20T03:16:38;101797.75;;;11.68;100.00
40998;BME280;26740;45.944;12.480;2022-10-20T03:19:04;101799.09;;;11.65;100.00
40998;BME280;26740;45.944;12.480;2022-10-20T03:21:29;101797.38;;;11.64;100.00
40998;BME280;26740;45.944;12.480;2022-10-20T03:23:55;101800.88;;;11.60;100.00
40998;BME280;26740;45.944;12.480;2022-10-20T03:26:20;101806.81;;;11.63;100.00
40998;BME280;26740;45.944;12.480;2022-10-20T03:28:46;101800.50;;;11.56;100.00
40998;BME280;26740;45.944;12.480;2022-10-20T03:31:11;101798.25;;;11.65;100.00
40998;BME280;26740;45.944;12.480;2022-10-20T03:33:37;101808.50;;;11.64;100.00
40998;BME280;26740;45.944;12.480;2022-10-20T03:36:03;101803.75;;;11.83;100.00
40998;BME280;26740;45.944;12.480;2022-10-20T03:38:29;101809.53;;;11.82;100.00
40998;BME280;26740;45.944;12.480;2022-10-20T03:40:54;101813.28;;;11.75;100.00
40998;BME280;26740;45.944;12.480;2022-10-20T03:43:20;101815.19;;;11.75;100.00
40998;BME280;26740;45.944;12.480;2022-10-20T03:45:46;101805.41;;;11.72;100.00
40998;BME280;26740;45.944;12.480;2022-10-20T03:48:11;101809.75;;;11.68;100.00
40998;BME280;26740;45.944;12.480;2022-10-20T03:50:41;101809.84;;;11.62;100.00
40998;BME280;26740;45.944;12.480;2022-10-20T03:53:09;101802.94;;;11.64;100.00
40998;BME280;26740;45.944;12.480;2022-10-20T03:55:37;101800.88;;;11.60;100.00
40998;BME280;26740;45.944;12.480;2022-10-20T03:58:02;101800.38;;;11.51;100.00
40998;BME280;26740;45.944;12.480;2022-10-20T04:00:28;101799.75;;;11.49;100.00
40998;BME280;26740;45.944;12.480;2022-10-20T04:02:53;101815.59;;;11.48;100.00
40998;BME280;26740;45.944;12.480;2022-10-20T04:05:20;101829.03;;;11.51;100.00
40998;BME280;26740;45.944;12.480;2022-10-20T04:07:46;101824.72;;;11.37;100.00
40998;BME280;26740;45.944;12.480;2022-10-20T04:10:14;101823.59;;;11.26;100.00
40998;BME280;26740;45.944;12.480;2022-10-20T04:12:39;101819.78;;;11.20;100.00
40998;BME280;26740;45.944;12.480;2022-10-20T04:15:06;101820.88;;;11.19;100.00
40998;BME280;26740;45.944;12.480;2022-10-20T04:17:32;101819.66;;;11.15;100.00
40998;BME280;26740;45.944;12.480;2022-10-20T04:19:58;101822.91;;;11.12;100.00
40998;BME280;26740;45.944;12.480;2022-10-20T04:22:24;101818.25;;;11.06;100.00
40998;BME280;26740;45.944;12.480;2022-10-20T04:24:49;101820.50;;;11.16;100.00
40998;BME280;26740;45.944;12.480;2022-10-20T04:27:15;101827.28;;;11.20;100.00
40998;BME280;26740;45.944;12.480;2022-10-20T04:29:41;101821.94;;;11.18;100.00
40998;BME280;26740;45.944;12.480;2022-10-20T04:32:06;101818.63;;;11.10;100.00
40998;BME280;26740;45.944;12.480;2022-10-20T04:34:32;101826.81;;;11.05;100.00
40998;BME280;26740;45.944;12.480;2022-10-20T04:36:58;101806.22;;;11.12;100.00
40998;BME280;26740;45.944;12.480;2022-10-20T04:39:23;101816.19;;;11.02;100.00
40998;BME280;26740;45.944;12.480;2022-10-20T04:41:50;101811.84;;;11.06;100.00
40998;BME280;26740;45.944;12.480;2022-10-20T04:44:16;101806.53;;;11.04;100.00
40998;BME280;26740;45.944;12.480;2022-10-20T04:46:41;101805.00;;;11.08;100.00
40998;BME280;26740;45.944;12.480;2022-10-20T04:49:07;101807.06;;;11.13;100.00
40998;BME280;26740;45.944;12.480;2022-10-20T04:51:33;101813.84;;;11.17;100.00
40998;BME280;26740;45.944;12.480;2022-10-20T04:53:58;101813.78;;;11.05;100.00
40998;BME280;26740;45.944;12.480;2022-10-20T04:56:24;101814.16;;;11.09;100.00
40998;BME280;26740;45.944;12.480;2022-10-20T04:58:54;101825.53;;;11.07;100.00
40998;BME280;26740;45.944;12.480;2022-10-20T05:01:23;101813.19;;;11.03;100.00
40998;BME280;26740;45.944;12.480;2022-10-20T05:03:50;101813.06;;;11.10;100.00
40998;BME280;26740;45.944;12.480;2022-10-20T05:06:22;101815.41;;;11.13;100.00
40998;BME280;26740;45.944;12.480;2022-10-20T05:08:50;101814.63;;;11.06;100.00
40998;BME280;26740;45.944;12.480;2022-10-20T05:11:18;101809.59;;;11.14;100.00
40998;BME280;26740;45.944;12.480;2022-10-20T05:13:45;101803.66;;;10.92;100.00
40998;BME280;26740;45.944;12.480;2022-10-20T05:16:11;101819.97;;;11.07;100.00
40998;BME280;26740;45.944;12.480;2022-10-20T05:18:38;101807.63;;;11.03;100.00
40998;BME280;26740;45.944;12.480;2022-10-20T05:21:10;101815.09;;;11.03;100.00
40998;BME280;26740;45.944;12.480;2022-10-20T05:23:38;101813.19;;;11.03;100.00
40998;BME280;26740;45.944;12.480;2022-10-20T05:26:06;101806.06;;;11.07;100.00
40998;BME280;26740;45.944;12.480;2022-10-20T05:28:32;101802.44;;;11.07;100.00
40998;BME280;26740;45.944;12.480;2022-10-20T05:31:06;101809.91;;;11.06;100.00
40998;BME280;26740;45.944;12.480;2022-10-20T05:33:32;101809.06;;;11.06;100.00
40998;BME280;26740;45.944;12.480;2022-10-20T05:35:58;101811.41;;;11.09;100.00
40998;BME280;26740;45.944;12.480;2022-10-20T05:38:24;101816.34;;;11.07;100.00
40998;BME280;26740;45.944;12.480;2022-10-20T05:40:50;101821.25;;;11.05;100.00
40998;BME280;26740;45.944;12.480;2022-10-20T05:43:15;101827.69;;;11.05;100.00
40998;BME280;26740;45.944;12.480;2022-10-20T05:45:41;101830.91;;;11.20;100.00
40998;BME280;26740;45.944;12.480;2022-10-20T05:48:06;101836.72;;;11.19;100.00
40998;BME280;26740;45.944;12.480;2022-10-20T05:50:32;101830.44;;;11.24;100.00
40998;BME280;26740;45.944;12.480;2022-10-20T05:52:58;101824.00;;;11.42;100.00
40998;BME280;26740;45.944;12.480;2022-10-20T05:55:23;101833.91;;;11.37;100.00
40998;BME280;26740;45.944;12.480;2022-10-20T05:57:50;101836.78;;;11.61;100.00
40998;BME280;26740;45.944;12.480;2022-10-20T06:00:16;101842.75;;;11.65;100.00
40998;BME280;26740;45.944;12.480;2022-10-20T06:02:44;101843.31;;;11.85;100.00
40998;BME280;26740;45.944;12.480;2022-10-20T06:05:09;101838.94;;;12.08;100.00
40998;BME280;26740;45.944;12.480;2022-10-20T06:07:35;101843.31;;;12.27;100.00
40998;BME280;26740;45.944;12.480;2022-10-20T06:10:01;101846.84;;;12.58;100.00
40998;BME280;26740;45.944;12.480;2022-10-20T06:12:27;101842.97;;;12.83;100.00
40998;BME280;26740;45.944;12.480;2022-10-20T06:14:52;101846.72;;;13.12;100.00
40998;BME280;26740;45.944;12.480;2022-10-20T06:17:18;101855.69;;;13.38;100.00
40998;BME280;26740;45.944;12.480;2022-10-20T06:19:43;101857.91;;;13.64;100.00
40998;BME280;26740;45.944;12.480;2022-10-20T06:22:09;101857.19;;;13.86;100.00
40998;BME280;26740;45.944;12.480;2022-10-20T06:24:34;101856.31;;;14.14;100.00
40998;BME280;26740;45.944;12.480;2022-10-20T06:27:00;101848.63;;;14.38;100.00
40998;BME280;26740;45.944;12.480;2022-10-20T06:29:25;101862.28;;;14.69;100.00
40998;BME280;26740;45.944;12.480;2022-10-20T06:31:51;101871.50;;;14.86;100.00
40998;BME280;26740;45.944;12.480;2022-10-20T06:34:21;101875.47;;;15.29;100.00
40998;BME280;26740;45.944;12.480;2022-10-20T06:36:47;101872.44;;;15.75;100.00
40998;BME280;26740;45.944;12.480;2022-10-20T06:39:17;101882.66;;;16.14;100.00
40998;BME280;26740;45.944;12.480;2022-10-20T06:41:47;101888.63;;;16.22;100.00
40998;BME280;26740;45.944;12.480;2022-10-20T06:44:15;101877.88;;;16.41;100.00
40998;BME280;26740;45.944;12.480;2022-10-20T06:46:41;101888.94;;;16.58;100.00
40998;BME280;26740;45.944;12.480;2022-10-20T06:49:07;101889.69;;;16.81;100.00
40998;BME280;26740;45.944;12.480;2022-10-20T06:51:34;101884.38;;;17.27;100.00
40998;BME280;26740;45.944;12.480;2022-10-20T06:54:00;101883.00;;;17.30;100.00
40998;BME280;26740;45.944;12.480;2022-10-20T06:56:28;101889.56;;;17.56;100.00
40998;BME280;26740;45.944;12.480;2022-10-20T06:58:56;101879.66;;;18.06;100.00
40998;BME280;26740;45.944;12.480;2022-10-20T07:01:24;101888.41;;;18.56;100.00
40998;BME280;26740;45.944;12.480;2022-10-20T07:03:54;101880.84;;;18.87;100.00
40998;BME280;26740;45.944;12.480;2022-10-20T07:06:34;101890.13;;;18.88;100.00
40998;BME280;26740;45.944;12.480;2022-10-20T07:09:01;101886.19;;;18.99;100.00
40998;BME280;26740;45.944;12.480;2022-10-20T07:11:29;101890.84;;;19.40;100.00
40998;BME280;26740;45.944;12.480;2022-10-20T07:13:57;101893.19;;;19.93;100.00
40998;BME280;26740;45.944;12.480;2022-10-20T07:16:25;101899.38;;;20.34;100.00
40998;BME280;26740;45.944;12.480;2022-10-20T07:18:51;101894.69;;;20.59;100.00
40998;BME280;26740;45.944;12.480;2022-10-20T07:21:19;101893.88;;;20.88;100.00
40998;BME280;26740;45.944;12.480;2022-10-20T07:23:47;101901.72;;;21.25;100.00
40998;BME280;26740;45.944;12.480;2022-10-20T07:26:18;101895.16;;;21.30;100.00
40998;BME280;26740;45.944;12.480;2022-10-20T07:28:47;101903.75;;;21.19;100.00
40998;BME280;26740;45.944;12.480;2022-10-20T07:31:19;101905.72;;;21.19;100.00
40998;BME280;26740;45.944;12.480;2022-10-20T07:33:45;101913.84;;;21.26;100.00
40998;BME280;26740;45.944;12.480;2022-10-20T07:36:22;101909.31;;;21.25;100.00
40998;BME280;26740;45.944;12.480;2022-10-20T07:38:50;101915.88;;;21.20;100.00
40998;BME280;26740;45.944;12.480;2022-10-20T07:41:16;101911.09;;;21.69;100.00
40998;BME280;26740;45.944;12.480;2022-10-20T07:43:42;101906.06;;;21.66;100.00
40998;BME280;26740;45.944;12.480;2022-10-20T07:46:09;101907.94;;;21.51;100.00
40998;BME280;26740;45.944;12.480;2022-10-20T07:48:36;101911.16;;;21.39;100.00
40998;BME280;26740;45.944;12.480;2022-10-20T07:53:46;101903.22;;;20.88;100.00
40998;BME280;26740;45.944;12.480;2022-10-20T07:56:13;101907.78;;;20.44;100.00
40998;BME280;26740;45.944;12.480;2022-10-20T07:58:40;101899.69;;;19.88;100.00
40998;BME280;26740;45.944;12.480;2022-10-20T08:01:05;101903.09;;;19.80;100.00
40998;BME280;26740;45.944;12.480;2022-10-20T08:03:31;101906.31;;;20.52;100.00
40998;BME280;26740;45.944;12.480;2022-10-20T08:05:57;101905.50;;;21.39;100.00
40998;BME280;26740;45.944;12.480;2022-10-20T08:08:23;101908.28;;;21.45;100.00
40998;BME280;26740;45.944;12.480;2022-10-20T08:10:48;101905.56;;;21.05;100.00
40998;BME280;26740;45.944;12.480;2022-10-20T08:13:13;101900.84;;;21.00;100.00
40998;BME280;26740;45.944;12.480;2022-10-20T08:15:39;101901.59;;;21.35;100.00
40998;BME280;26740;45.944;12.480;2022-10-20T08:18:05;101901.09;;;21.04;100.00
40998;BME280;26740;45.944;12.480;2022-10-20T08:20:30;101907.31;;;20.72;100.00
40998;BME280;26740;45.944;12.480;2022-10-20T08:22:57;101909.31;;;20.66;100.00
40998;BME280;26740;45.944;12.480;2022-10-20T08:25:23;101904.94;;;21.13;100.00
40998;BME280;26740;45.944;12.480;2022-10-20T08:27:49;101902.78;;;20.76;100.00
40998;BME280;26740;45.944;12.480;2022-10-20T08:30:14;101903.16;;;20.59;100.00
40998;BME280;26740;45.944;12.480;2022-10-20T08:32:40;101900.25;;;20.74;100.00
40998;BME280;26740;45.944;12.480;2022-10-20T08:35:06;101903.25;;;20.83;100.00
40998;BME280;26740;45.944;12.480;2022-10-20T08:37:32;101903.94;;;20.70;100.00
40998;BME280;26740;45.944;12.480;2022-10-20T08:39:58;101898.53;;;21.32;100.00
40998;BME280;26740;45.944;12.480;2022-10-20T08:42:24;101893.13;;;21.59;95.70
40998;BME280;26740;45.944;12.480;2022-10-20T08:44:55;101895.81;;;21.94;95.44
40998;BME280;26740;45.944;12.480;2022-10-20T08:49:53;101894.53;;;22.76;88.90
40998;BME280;26740;45.944;12.480;2022-10-20T08:52:22;101894.66;;;23.87;82.62
40998;BME280;26740;45.944;12.480;2022-10-20T08:54:51;101887.94;;;23.97;85.91
40998;BME280;26740;45.944;12.480;2022-10-20T08:57:27;101898.94;;;24.35;78.20
40998;BME280;26740;45.944;12.480;2022-10-20T08:59:58;101890.16;;;23.58;83.98
40998;BME280;26740;45.944;12.480;2022-10-20T09:02:26;101896.88;;;23.21;85.29
40998;BME280;26740;45.944;12.480;2022-10-20T09:04:58;101902.34;;;23.87;80.89
40998;BME280;26740;45.944;12.480;2022-10-20T09:07:37;101898.19;;;24.43;80.56
40998;BME280;26740;45.944;12.480;2022-10-20T09:12:42;101901.94;;;24.97;76.49
40998;BME280;26740;45.944;12.480;2022-10-20T09:15:10;101898.16;;;24.79;74.82
40998;BME280;26740;45.944;12.480;2022-10-20T09:17:45;101898.56;;;23.50;78.57
40998;BME280;26740;45.944;12.480;2022-10-20T09:20:20;101901.41;;;22.89;84.49
40998;BME280;26740;45.944;12.480;2022-10-20T09:22:46;101902.22;;;22.89;83.24
40998;BME280;26740;45.944;12.480;2022-10-20T09:25:18;101907.16;;;23.31;81.55
40998;BME280;26740;45.944;12.480;2022-10-20T09:27:49;101908.41;;;22.91;81.67
40998;BME280;26740;45.944;12.480;2022-10-20T09:30:19;101906.81;;;22.52;85.46
40998;BME280;26740;45.944;12.480;2022-10-20T09:32:46;101916.91;;;22.59;83.33
40998;BME280;26740;45.944;12.480;2022-10-20T09:35:27;101912.34;;;23.09;84.21
40998;BME280;26740;45.944;12.480;2022-10-20T09:40:35;101919.31;;;24.96;73.71
40998;BME280;26740;45.944;12.480;2022-10-20T09:43:15;101921.63;;;26.05;69.07
40998;BME280;26740;45.944;12.480;2022-10-20T09:45:59;101921.06;;;25.86;70.01
40998;BME280;26740;45.944;12.480;2022-10-20T09:48:31;101926.09;;;25.89;69.03
40998;BME280;26740;45.944;12.480;2022-10-20T09:50:59;101924.59;;;25.43;69.97
40998;BME280;26740;45.944;12.480;2022-10-20T09:53:34;101914.44;;;25.50;71.90
40998;BME280;26740;45.944;12.480;2022-10-20T09:56:02;101913.22;;;25.43;69.94
40998;BME280;26740;45.944;12.480;2022-10-20T09:58:35;101910.09;;;26.37;69.38
40998;BME280;26740;45.944;12.480;2022-10-20T10:01:12;101918.03;;;27.31;62.70
40998;BME280;26740;45.944;12.480;2022-10-20T10:03:43;101916.41;;;26.95;63.83
40998;BME280;26740;45.944;12.480;2022-10-20T10:09:05;101917.38;;;25.77;69.49
40998;BME280;26740;45.944;12.480;2022-10-20T10:11:56;101912.38;;;25.91;71.53
40998;BME280;26740;45.944;12.480;2022-10-20T10:14:22;101917.38;;;25.37;67.34
40998;BME280;26740;45.944;12.480;2022-10-20T10:16:48;101919.28;;;25.19;70.66
40998;BME280;26740;45.944;12.480;2022-10-20T10:19:18;101924.97;;;25.19;73.69
40998;BME280;26740;45.944;12.480;2022-10-20T10:21:57;101907.25;;;26.10;71.19
40998;BME280;26740;45.944;12.480;2022-10-20T10:24:36;101909.16;;;27.15;63.30
40998;BME280;26740;45.944;12.480;2022-10-20T10:27:07;101900.56;;;28.01;63.88
40998;BME280;26740;45.944;12.480;2022-10-20T10:29:43;101907.88;;;28.52;58.16
40998;BME280;26740;45.944;12.480;2022-10-20T10:37:27;101897.88;;;30.12;55.76
40998;BME280;26740;45.944;12.480;2022-10-20T10:39:53;101894.69;;;30.01;56.73
40998;BME280;26740;45.944;12.480;2022-10-20T10:45:11;101878.91;;;27.70;59.58
40998;BME280;26740;45.944;12.480;2022-10-20T10:48:05;101881.44;;;27.33;58.58
40998;BME280;26740;45.944;12.480;2022-10-20T10:50:46;101874.44;;;27.21;63.89
40998;BME280;26740;45.944;12.480;2022-10-20T10:59:10;101860.16;;;28.11;62.10
40998;BME280;26740;45.944;12.480;2022-10-20T11:01:50;101864.84;;;27.65;57.58
40998;BME280;26740;45.944;12.480;2022-10-20T11:09:58;101857.50;;;26.25;61.52
40998;BME280;26740;45.944;12.480;2022-10-20T11:15:13;101851.69;;;25.47;64.54
40998;BME280;26740;45.944;12.480;2022-10-20T11:20:25;101841.44;;;25.95;64.79
40998;BME280;26740;45.944;12.480;2022-10-20T11:28:56;101827.38;;;26.98;62.69
40998;BME280;26740;45.944;12.480;2022-10-20T11:31:35;101823.59;;;26.85;63.31
40998;BME280;26740;45.944;12.480;2022-10-20T11:34:05;101823.56;;;26.94;60.90
40998;BME280;26740;45.944;12.480;2022-10-20T11:36:38;101819.16;;;26.23;63.66
40998;BME280;26740;45.944;12.480;2022-10-20T11:39:16;101825.09;;;25.51;62.56
40998;BME280;26740;45.944;12.480;2022-10-20T11:41:46;101828.72;;;25.26;62.12
40998;BME280;26740;45.944;12.480;2022-10-20T11:44:23;101819.34;;;24.94;63.53
40998;BME280;26740;45.944;12.480;2022-10-20T11:47:05;101818.84;;;24.60;65.11
40998;BME280;26740;45.944;12.480;2022-10-20T11:49:33;101813.41;;;24.28;65.45
40998;BME280;26740;45.944;12.480;2022-10-20T11:55:14;101808.50;;;25.36;66.18
40998;BME280;26740;45.944;12.480;2022-10-20T12:03:34;101797.88;;;26.29;63.78
40998;BME280;26740;45.944;12.480;2022-10-20T12:09:05;101795.91;;;24.34;64.73
40998;BME280;26740;45.944;12.480;2022-10-20T12:11:50;101795.25;;;24.91;65.53
40998;BME280;26740;45.944;12.480;2022-10-20T12:14:28;101792.34;;;24.74;63.97
40998;BME280;26740;45.944;12.480;2022-10-20T12:19:38;101781.63;;;25.11;64.58
40998;BME280;26740;45.944;12.480;2022-10-20T12:24:38;101783.16;;;24.77;65.54
40998;BME280;26740;45.944;12.480;2022-10-20T12:37:37;101768.50;;;24.30;66.29
40998;BME280;26740;45.944;12.480;2022-10-20T12:42:35;101764.88;;;25.01;67.31
40998;BME280;26740;45.944;12.480;2022-10-20T12:47:42;101763.31;;;24.23;68.42
40998;BME280;26740;45.944;12.480;2022-10-20T12:56:00;101755.25;;;24.79;67.29
40998;BME280;26740;45.944;12.480;2022-10-20T12:59:08;101744.19;;;24.37;67.41
40998;BME280;26740;45.944;12.480;2022-10-20T13:12:52;101732.97;;;25.04;70.01
40998;BME280;26740;45.944;12.480;2022-10-20T13:15:20;101730.56;;;25.46;68.35
40998;BME280;26740;45.944;12.480;2022-10-20T13:17:56;101729.22;;;25.34;66.47
40998;BME280;26740;45.944;12.480;2022-10-20T13:23:39;101723.38;;;23.60;73.28
40998;BME280;26740;45.944;12.480;2022-10-20T13:26:17;101720.03;;;23.58;73.11
40998;BME280;26740;45.944;12.480;2022-10-20T13:28:47;101719.31;;;23.53;72.79
40998;BME280;26740;45.944;12.480;2022-10-20T13:31:48;101715.53;;;23.07;75.89
40998;BME280;26740;45.944;12.480;2022-10-20T13:34:30;101710.47;;;22.90;77.77
40998;BME280;26740;45.944;12.480;2022-10-20T13:37:15;101706.50;;;22.91;78.17
40998;BME280;26740;45.944;12.480;2022-10-20T13:52:50;101714.06;;;23.09;78.92
40998;BME280;26740;45.944;12.480;2022-10-20T13:55:28;101712.38;;;22.95;79.63
40998;BME280;26740;45.944;12.480;2022-10-20T13:58:18;101704.59;;;23.00;79.18
40998;BME280;26740;45.944;12.480;2022-10-20T14:01:04;101706.38;;;22.96;78.00
40998;BME280;26740;45.944;12.480;2022-10-20T14:03:39;101707.53;;;22.95;75.88
40998;BME280;26740;45.944;12.480;2022-10-20T14:06:05;101709.03;;;22.79;79.76
40998;BME280;26740;45.944;12.480;2022-10-20T14:08:41;101703.97;;;22.76;78.52
40998;BME280;26740;45.944;12.480;2022-10-20T14:11:07;101703.13;;;22.61;81.39
40998;BME280;26740;45.944;12.480;2022-10-20T14:13:36;101697.78;;;22.60;81.04
40998;BME280;26740;45.944;12.480;2022-10-20T14:16:06;101694.75;;;22.56;83.91
40998;BME280;26740;45.944;12.480;2022-10-20T14:18:40;101691.81;;;22.61;81.29
40998;BME280;26740;45.944;12.480;2022-10-20T14:21:17;101701.56;;;22.83;82.22
40998;BME280;26740;45.944;12.480;2022-10-20T14:23:44;101702.84;;;22.77;81.72
40998;BME280;26740;45.944;12.480;2022-10-20T14:26:14;101694.97;;;22.60;83.17
40998;BME280;26740;45.944;12.480;2022-10-20T14:28:41;101701.16;;;22.76;85.11
40998;BME280;26740;45.944;12.480;2022-10-20T14:31:09;101702.84;;;22.63;84.71
40998;BME280;26740;45.944;12.480;2022-10-20T14:33:41;101696.44;;;22.57;84.45
40998;BME280;26740;45.944;12.480;2022-10-20T14:36:18;101699.69;;;22.64;84.31
40998;BME280;26740;45.944;12.480;2022-10-20T14:38:49;101694.53;;;22.52;89.79
40998;BME280;26740;45.944;12.480;2022-10-20T14:41:41;101702.47;;;22.37;90.20
40998;BME280;26740;45.944;12.480;2022-10-20T14:44:13;101710.44;;;22.34;90.17
40998;BME280;26740;45.944;12.480;2022-10-20T14:46:45;101706.34;;;22.27;88.54
40998;BME280;26740;45.944;12.480;2022-10-20T14:49:17;101703.91;;;22.20;88.99
40998;BME280;26740;45.944;12.480;2022-10-20T14:52:00;101707.34;;;22.17;93.72
40998;BME280;26740;45.944;12.480;2022-10-20T14:59:50;101701.00;;;21.73;99.56
40998;BME280;26740;45.944;12.480;2022-10-20T15:02:33;101694.69;;;21.63;100.00
40998;BME280;26740;45.944;12.480;2022-10-20T15:07:50;101700.38;;;21.38;100.00